This is the latest recevied weather packets stored in our database for station/object TA3HRJ-12. If no packets are shown the sender has not sent any weather packets the latest 10 day(s).
| Time | Temp. | Humidity | Pressure | Rain* | Wind** | Luminosity | Snow |
|---|---|---|---|---|---|---|---|
| 1777888510 | 13.33° C | 43% | 1019.6 hPa | - | - | - | - |
| 1777887610 | 13.89° C | 45% | 1019.6 hPa | - | - | - | - |
| 1777886710 | 13.89° C | 39% | 1019.6 hPa | - | - | - | - |
| 1777885809 | 13.89° C | 40% | 1019.5 hPa | - | - | - | - |
| 1777884909 | 13.33° C | 42% | 1019.5 hPa | - | - | - | - |
| 1777884009 | 12.78° C | 43% | 1019.4 hPa | - | - | - | - |
| 1777883109 | 12.78° C | 43% | 1019.3 hPa | - | - | - | - |
| 1777882209 | 12.22° C | 44% | 1019.2 hPa | - | - | - | - |
| 1777881309 | 12.22° C | 43% | 1019 hPa | - | - | - | - |
| 1777880409 | 12.78° C | 43% | 1018.9 hPa | - | - | - | - |
| 1777879509 | 12.78° C | 43% | 1018.7 hPa | - | - | - | - |
| 1777878609 | 11.11° C | 45% | 1018.7 hPa | - | - | - | - |
| 1777877709 | 12.22° C | 44% | 1018.5 hPa | - | - | - | - |
| 1777876808 | 12.22° C | 44% | 1018.3 hPa | - | - | - | - |
| 1777875908 | 11.67° C | 44% | 1018.2 hPa | - | - | - | - |
| 1777875008 | 11.67° C | 45% | 1018.1 hPa | - | - | - | - |
| 1777874108 | 11.67° C | 44% | 1018.1 hPa | - | - | - | - |
| 1777873208 | 11.67° C | 46% | 1018 hPa | - | - | - | - |
| 1777872308 | 12.22° C | 45% | 1017.9 hPa | - | - | - | - |
| 1777871408 | 11.11° C | 47% | 1017.7 hPa | - | - | - | - |
| 1777870508 | 12.22° C | 44% | 1017.6 hPa | - | - | - | - |
| 1777869608 | 13.33° C | 41% | 1017.6 hPa | - | - | - | - |
| 1777868708 | 13.89° C | 41% | 1017.5 hPa | - | - | - | - |
| 1777867808 | 13.33° C | 42% | 1017.4 hPa | - | - | - | - |
| 1777866907 | 13.33° C | 42% | 1017.3 hPa | - | - | - | - |
* Rain since midnight (hover to see other rain measurements)
** Current wind speed in m/s (hover to see current wind gust speed)